createdAt,value
2022-10-19T00:00:37.490Z,13.32
2022-10-19T00:01:37.539Z,13.30
2022-10-19T00:02:37.471Z,13.29
2022-10-19T00:03:37.540Z,13.29
2022-10-19T00:04:37.427Z,13.30
2022-10-19T00:05:37.452Z,13.30
2022-10-19T00:06:37.445Z,13.30
2022-10-19T00:07:37.428Z,13.28
2022-10-19T00:08:37.422Z,13.29
2022-10-19T00:09:37.379Z,13.32
2022-10-19T00:10:37.402Z,13.29
2022-10-19T00:11:37.373Z,13.29
2022-10-19T00:12:37.368Z,13.30
2022-10-19T00:13:37.345Z,13.30
2022-10-19T00:14:37.338Z,13.32
2022-10-19T00:15:37.300Z,13.33
2022-10-19T00:16:37.355Z,13.33
2022-10-19T00:17:37.297Z,13.36
2022-10-19T00:18:37.316Z,13.38
2022-10-19T00:19:37.251Z,13.36
2022-10-19T00:20:37.254Z,13.38
2022-10-19T00:21:37.381Z,13.36
2022-10-19T00:22:37.234Z,13.36
2022-10-19T00:23:37.212Z,13.33
2022-10-19T00:24:37.202Z,13.36
2022-10-19T00:25:37.208Z,13.38
2022-10-19T00:26:37.194Z,13.38
2022-10-19T00:27:37.207Z,13.41
2022-10-19T00:28:37.195Z,13.42
2022-10-19T00:29:37.136Z,13.42
2022-10-19T00:30:37.141Z,13.41
2022-10-19T00:31:37.137Z,13.38
2022-10-19T00:32:37.107Z,13.33
2022-10-19T00:33:37.158Z,13.33
2022-10-19T00:34:37.078Z,13.32
2022-10-19T00:35:37.080Z,13.30
2022-10-19T00:36:37.090Z,13.28
2022-10-19T00:37:37.059Z,13.26
2022-10-19T00:38:37.081Z,13.25
2022-10-19T00:39:37.030Z,13.23
2022-10-19T00:40:37.006Z,13.23
2022-10-19T00:41:37.034Z,13.25
2022-10-19T00:42:37.008Z,13.22
2022-10-19T00:43:36.978Z,13.25
2022-10-19T00:44:37.085Z,13.25
2022-10-19T00:45:36.961Z,13.26
2022-10-19T00:46:36.965Z,13.26
2022-10-19T00:47:36.961Z,13.26
2022-10-19T00:48:36.941Z,13.28
2022-10-19T00:49:36.944Z,13.28
2022-10-19T00:50:36.934Z,13.26
2022-10-19T00:51:36.883Z,13.25
2022-10-19T00:52:37.046Z,13.23
2022-10-19T00:53:36.860Z,13.23
2022-10-19T00:54:36.894Z,13.22
2022-10-19T00:55:36.875Z,13.23
2022-10-19T00:56:36.845Z,13.23
2022-10-19T00:57:36.825Z,13.23
2022-10-19T00:58:36.836Z,13.22
2022-10-19T00:59:36.806Z,13.19
2022-10-19T01:00:36.773Z,13.20
2022-10-19T01:01:36.816Z,13.12
2022-10-19T01:02:37.030Z,13.10
2022-10-19T01:03:36.773Z,13.05
2022-10-19T01:04:36.727Z,13.05
2022-10-19T01:05:36.730Z,13.01
2022-10-19T01:06:36.784Z,13.03
2022-10-19T01:07:36.990Z,13.01
2022-10-19T01:08:36.703Z,13.01
2022-10-19T01:09:36.709Z,13.03
2022-10-19T01:10:36.681Z,13.01
2022-10-19T01:11:36.675Z,12.97
2022-10-19T01:12:36.626Z,12.97
2022-10-19T01:13:36.641Z,12.97
2022-10-19T01:14:36.638Z,12.93
2022-10-19T01:15:36.610Z,12.92
2022-10-19T01:16:36.607Z,12.89
2022-10-19T01:17:36.773Z,12.87
2022-10-19T01:18:36.578Z,12.86
2022-10-19T01:19:36.592Z,12.85
2022-10-19T01:20:36.551Z,12.82
2022-10-19T01:21:36.545Z,12.78
2022-10-19T01:22:36.532Z,12.77
2022-10-19T01:23:36.550Z,12.74
2022-10-19T01:24:39.835Z,12.75
2022-10-19T01:25:36.503Z,12.72
2022-10-19T01:26:36.484Z,12.72
2022-10-19T01:27:36.618Z,12.71
2022-10-19T01:28:36.539Z,12.70
2022-10-19T01:29:36.441Z,12.68
2022-10-19T01:30:36.444Z,12.70
2022-10-19T01:31:36.412Z,12.70
2022-10-19T01:32:36.402Z,12.71
2022-10-19T01:33:36.392Z,12.74
2022-10-19T01:34:36.436Z,12.75
2022-10-19T01:35:36.365Z,12.72
2022-10-19T01:36:36.374Z,12.70
2022-10-19T01:37:36.797Z,12.68
2022-10-19T01:38:36.653Z,12.64
2022-10-19T01:39:36.392Z,12.65
2022-10-19T01:40:37.344Z,12.62
2022-10-19T01:41:36.308Z,12.60
2022-10-19T01:42:36.295Z,12.62
2022-10-19T01:43:36.284Z,12.64
2022-10-19T01:44:36.296Z,12.64
2022-10-19T01:45:36.289Z,12.59
2022-10-19T01:46:36.305Z,12.59
2022-10-19T01:47:36.518Z,12.57
2022-10-19T01:48:36.230Z,12.57
2022-10-19T01:49:36.221Z,12.53
2022-10-19T01:50:36.265Z,12.49
2022-10-19T01:51:36.197Z,12.49
2022-10-19T01:52:36.431Z,12.49
2022-10-19T01:53:36.181Z,12.49
2022-10-19T01:54:36.162Z,12.47
2022-10-19T01:55:36.165Z,12.42
2022-10-19T01:56:36.129Z,12.27
2022-10-19T01:57:36.119Z,12.12
2022-10-19T01:58:36.108Z,12.02
2022-10-19T01:59:36.110Z,11.96
2022-10-19T02:00:36.172Z,11.91
2022-10-19T02:01:36.073Z,11.86
2022-10-19T02:02:36.363Z,11.79
2022-10-19T02:03:36.054Z,11.72
2022-10-19T02:04:36.065Z,11.67
2022-10-19T02:05:36.023Z,11.67
2022-10-19T02:06:36.064Z,11.69
2022-10-19T02:07:36.002Z,11.65
2022-10-19T02:08:35.982Z,11.64
2022-10-19T02:09:35.981Z,11.65
2022-10-19T02:10:35.966Z,11.64
2022-10-19T02:11:35.966Z,11.64
2022-10-19T02:12:36.398Z,11.69
2022-10-19T02:13:35.923Z,11.67
2022-10-19T02:14:35.947Z,11.64
2022-10-19T02:15:35.904Z,11.55
2022-10-19T02:16:35.915Z,11.49
2022-10-19T02:17:35.914Z,11.46
2022-10-19T02:18:35.878Z,11.39
2022-10-19T02:19:35.881Z,11.37
2022-10-19T02:20:35.845Z,11.37
2022-10-19T02:21:35.898Z,11.36
2022-10-19T02:22:36.105Z,11.33
2022-10-19T02:23:35.807Z,11.32
2022-10-19T02:24:35.822Z,11.28
2022-10-19T02:25:35.820Z,11.29
2022-10-19T02:26:35.790Z,11.27
2022-10-19T02:27:35.810Z,11.29
2022-10-19T02:28:35.762Z,11.25
2022-10-19T02:29:35.762Z,11.25
2022-10-19T02:30:35.761Z,11.25
2022-10-19T02:31:35.721Z,11.24
2022-10-19T02:32:35.899Z,11.24
2022-10-19T02:33:35.727Z,11.25
2022-10-19T02:34:35.681Z,11.28
2022-10-19T02:35:35.699Z,11.33
2022-10-19T02:36:35.658Z,11.36
2022-10-19T02:38:35.641Z,11.43
2022-10-19T02:39:35.651Z,11.39
2022-10-19T02:40:35.634Z,11.35
2022-10-19T02:41:35.603Z,11.27
2022-10-19T02:42:35.967Z,11.19
2022-10-19T02:43:35.595Z,11.07
2022-10-19T02:44:35.628Z,11.02
2022-10-19T02:45:35.582Z,10.99
2022-10-19T02:46:35.587Z,10.99
2022-10-19T02:47:35.861Z,11.02
2022-10-19T02:48:35.533Z,11.06
2022-10-19T02:49:35.556Z,11.11
2022-10-19T02:50:35.521Z,11.17
2022-10-19T02:51:35.515Z,11.22
2022-10-19T02:52:35.478Z,11.27
2022-10-19T02:53:35.464Z,11.29
2022-10-19T02:54:35.445Z,11.33
2022-10-19T02:55:35.538Z,11.36
2022-10-19T02:56:35.445Z,11.37
2022-10-19T02:57:35.663Z,11.39
2022-10-19T02:58:35.406Z,11.43
2022-10-19T02:59:35.396Z,11.43
2022-10-19T03:00:35.418Z,11.42
2022-10-19T03:01:35.439Z,11.42
2022-10-19T03:02:35.370Z,11.42
2022-10-19T03:03:35.392Z,11.42
2022-10-19T03:04:35.396Z,11.40
2022-10-19T03:05:35.352Z,11.40
2022-10-19T03:06:35.328Z,11.40
2022-10-19T03:07:35.588Z,11.40
2022-10-19T03:08:35.332Z,11.43
2022-10-19T03:09:35.292Z,11.44
2022-10-19T03:10:35.278Z,11.46
2022-10-19T03:11:35.279Z,11.44
2022-10-19T03:12:35.263Z,11.40
2022-10-19T03:13:35.273Z,11.40
2022-10-19T03:14:35.251Z,11.37
2022-10-19T03:15:35.211Z,11.27
2022-10-19T03:16:35.220Z,11.14
2022-10-19T03:17:35.591Z,11.10
2022-10-19T03:18:35.172Z,11.04
2022-10-19T03:19:35.162Z,11.02
2022-10-19T03:20:35.172Z,11.00
2022-10-19T03:21:35.175Z,10.99
2022-10-19T03:22:35.155Z,10.99
2022-10-19T03:23:35.131Z,10.97
2022-10-19T03:24:35.136Z,10.99
2022-10-19T03:25:35.113Z,11.02
2022-10-19T03:26:35.103Z,11.04
2022-10-19T03:27:35.426Z,11.03
2022-10-19T03:28:35.181Z,11.06
2022-10-19T03:29:35.054Z,11.11
2022-10-19T03:30:35.035Z,11.17
2022-10-19T03:31:35.054Z,11.19
2022-10-19T03:32:35.015Z,11.25
2022-10-19T03:33:35.017Z,11.32
2022-10-19T03:34:35.013Z,11.36
2022-10-19T03:35:35.015Z,11.40
2022-10-19T03:36:34.966Z,11.43
2022-10-19T03:37:35.335Z,11.49
2022-10-19T03:38:34.947Z,11.49
2022-10-19T03:39:34.959Z,11.52
2022-10-19T03:40:34.977Z,11.55
2022-10-19T03:41:34.930Z,11.55
2022-10-19T03:42:34.921Z,11.58
2022-10-19T03:43:34.901Z,11.61
2022-10-19T03:44:34.891Z,11.62
2022-10-19T03:45:34.877Z,11.62
2022-10-19T03:46:34.920Z,11.65
2022-10-19T03:47:35.175Z,11.65
2022-10-19T03:48:34.829Z,11.64
2022-10-19T03:49:36.860Z,11.64
2022-10-19T03:50:34.824Z,11.61
2022-10-19T03:51:34.822Z,11.61
2022-10-19T03:52:34.842Z,11.60
2022-10-19T03:53:34.797Z,11.58
2022-10-19T03:54:34.781Z,11.57
2022-10-19T03:55:34.812Z,11.58
2022-10-19T03:56:34.765Z,11.61
2022-10-19T03:57:35.088Z,11.62
2022-10-19T03:58:34.720Z,11.60
2022-10-19T03:59:34.723Z,11.62
2022-10-19T04:00:34.715Z,11.61
2022-10-19T04:01:34.731Z,11.64
2022-10-19T04:02:34.681Z,11.69
2022-10-19T04:04:34.673Z,11.75
2022-10-19T04:05:34.646Z,11.75
2022-10-19T04:06:34.624Z,11.73
2022-10-19T04:07:34.824Z,11.70
2022-10-19T04:08:34.617Z,11.65
2022-10-19T04:09:34.584Z,11.62
2022-10-19T04:10:34.605Z,11.60
2022-10-19T04:11:34.630Z,11.61
2022-10-19T04:12:34.619Z,11.62
2022-10-19T04:13:34.555Z,11.62
2022-10-19T04:14:52.606Z,11.61
2022-10-19T04:15:35.532Z,11.62
2022-10-19T04:16:34.516Z,11.61
2022-10-19T04:17:34.861Z,11.61
2022-10-19T04:18:34.507Z,11.58
2022-10-19T04:19:34.509Z,11.60
2022-10-19T04:20:34.468Z,11.60
2022-10-19T04:21:34.474Z,11.60
2022-10-19T04:22:34.508Z,11.61
2022-10-19T04:23:34.459Z,11.61
2022-10-19T04:24:34.472Z,11.61
2022-10-19T04:25:34.401Z,11.62
2022-10-19T04:26:34.421Z,11.64
2022-10-19T04:27:34.637Z,11.67
2022-10-19T04:28:34.484Z,11.70
2022-10-19T04:29:34.351Z,11.70
2022-10-19T04:30:34.364Z,11.72
2022-10-19T04:31:34.362Z,11.70
2022-10-19T04:32:34.344Z,11.73
2022-10-19T04:33:34.435Z,11.73
2022-10-19T04:34:36.429Z,11.73
2022-10-19T04:35:35.307Z,11.73
2022-10-19T04:36:34.316Z,11.73
2022-10-19T04:37:34.617Z,11.70
2022-10-19T04:38:34.280Z,11.70
2022-10-19T04:39:34.309Z,11.69
2022-10-19T04:40:34.257Z,11.69
2022-10-19T04:41:34.245Z,11.69
2022-10-19T04:42:34.238Z,11.72
2022-10-19T04:43:34.194Z,11.70
2022-10-19T04:44:34.246Z,11.72
2022-10-19T04:45:34.185Z,11.69
2022-10-19T04:46:34.203Z,11.67
2022-10-19T04:47:34.263Z,11.65
2022-10-19T04:48:34.144Z,11.64
2022-10-19T04:49:34.126Z,11.61
2022-10-19T04:50:34.160Z,11.61
2022-10-19T04:51:34.116Z,11.57
2022-10-19T04:52:34.117Z,11.60
2022-10-19T04:53:34.093Z,11.57
2022-10-19T04:54:34.109Z,11.57
2022-10-19T04:55:34.155Z,11.55
2022-10-19T04:56:34.067Z,11.54
2022-10-19T04:57:34.259Z,11.51
2022-10-19T04:58:34.042Z,11.51
2022-10-19T04:59:34.022Z,11.49
2022-10-19T05:00:34.062Z,11.47
2022-10-19T05:01:34.049Z,11.49
2022-10-19T05:02:34.015Z,11.49
2022-10-19T05:03:33.981Z,11.52
2022-10-19T05:04:33.986Z,11.49
2022-10-19T05:05:33.940Z,11.49
2022-10-19T05:06:33.990Z,11.49
2022-10-19T05:07:34.152Z,11.49
2022-10-19T05:08:33.922Z,11.47
2022-10-19T05:09:33.909Z,11.46
2022-10-19T05:10:33.894Z,11.47
2022-10-19T05:11:33.904Z,11.49
2022-10-19T05:12:33.862Z,11.47
2022-10-19T05:13:33.908Z,11.49
2022-10-19T05:14:35.023Z,11.51
2022-10-19T05:15:33.826Z,11.49
2022-10-19T05:16:33.837Z,11.47
2022-10-19T05:17:34.126Z,11.44
2022-10-19T05:18:33.814Z,11.44
2022-10-19T05:19:33.805Z,11.44
2022-10-19T05:20:33.775Z,11.46
2022-10-19T05:21:33.780Z,11.47
2022-10-19T05:22:33.768Z,11.46
2022-10-19T05:23:33.737Z,11.46
2022-10-19T05:24:33.765Z,11.43
2022-10-19T05:25:33.759Z,11.39
2022-10-19T05:26:33.739Z,11.40
2022-10-19T05:27:34.020Z,11.39
2022-10-19T05:28:33.717Z,11.40
2022-10-19T05:29:33.682Z,11.42
2022-10-19T05:30:33.796Z,11.42
2022-10-19T05:31:33.660Z,11.43
2022-10-19T05:32:33.650Z,11.47
2022-10-19T05:33:33.641Z,11.49
2022-10-19T05:34:33.619Z,11.51
2022-10-19T05:35:33.606Z,11.55
2022-10-19T05:36:33.609Z,11.58
2022-10-19T05:37:33.844Z,11.60
2022-10-19T05:38:33.609Z,11.60
2022-10-19T05:39:33.562Z,11.58
2022-10-19T05:40:33.554Z,11.58
2022-10-19T05:41:33.597Z,11.58
2022-10-19T05:42:33.535Z,11.57
2022-10-19T05:43:33.525Z,11.58
2022-10-19T05:44:33.567Z,11.57
2022-10-19T05:45:33.504Z,11.55
2022-10-19T05:46:33.513Z,11.57
2022-10-19T05:47:33.845Z,11.54
2022-10-19T05:48:33.489Z,11.51
2022-10-19T05:49:33.456Z,11.47
2022-10-19T05:50:33.436Z,11.47
2022-10-19T05:51:33.443Z,11.49
2022-10-19T05:52:33.445Z,11.47
2022-10-19T05:53:33.438Z,11.44
2022-10-19T05:54:33.384Z,11.42
2022-10-19T05:55:33.404Z,11.40
2022-10-19T05:56:33.354Z,11.36
2022-10-19T05:57:33.724Z,11.35
2022-10-19T05:58:33.398Z,11.37
2022-10-19T05:59:33.358Z,11.37
2022-10-19T06:00:33.356Z,11.40
2022-10-19T06:01:33.414Z,11.39
2022-10-19T06:02:33.310Z,11.40
2022-10-19T06:03:33.276Z,11.43
2022-10-19T06:04:33.320Z,11.44
2022-10-19T06:05:33.247Z,11.43
2022-10-19T06:06:33.261Z,11.44
2022-10-19T06:07:33.715Z,11.44
2022-10-19T06:08:33.216Z,11.46
2022-10-19T06:09:33.228Z,11.47
2022-10-19T06:10:33.242Z,11.49
2022-10-19T06:11:33.252Z,11.52
2022-10-19T06:12:33.181Z,11.55
2022-10-19T06:13:33.158Z,11.58
2022-10-19T06:14:33.183Z,11.57
2022-10-19T06:15:33.192Z,11.58
2022-10-19T06:16:33.142Z,11.57
2022-10-19T06:17:33.387Z,11.61
2022-10-19T06:18:33.143Z,11.61
2022-10-19T06:19:33.122Z,11.64
2022-10-19T06:20:33.093Z,11.64
2022-10-19T06:21:33.090Z,11.65
2022-10-19T06:22:33.064Z,11.64
2022-10-19T06:23:33.091Z,11.65
2022-10-19T06:24:33.059Z,11.65
2022-10-19T06:25:33.037Z,11.69
2022-10-19T06:26:33.045Z,11.70
2022-10-19T06:27:33.450Z,11.72
2022-10-19T06:28:33.054Z,11.73
2022-10-19T06:29:32.983Z,11.78
2022-10-19T06:30:33.057Z,11.79
2022-10-19T06:31:32.978Z,11.85
2022-10-19T06:32:32.957Z,11.86
2022-10-19T06:33:32.988Z,11.88
2022-10-19T06:34:32.989Z,11.94
2022-10-19T06:35:32.906Z,11.95
2022-10-19T06:36:32.909Z,12.01
2022-10-19T06:37:33.298Z,12.04
2022-10-19T06:38:32.885Z,12.07
2022-10-19T06:39:32.897Z,12.10
2022-10-19T06:40:32.905Z,12.13
2022-10-19T06:41:32.869Z,12.14
2022-10-19T06:42:32.840Z,12.16
2022-10-19T06:43:32.818Z,12.19
2022-10-19T06:44:32.830Z,12.19
2022-10-19T06:45:35.880Z,12.19
2022-10-19T06:46:32.788Z,12.19
2022-10-19T06:47:33.122Z,12.17
2022-10-19T06:48:32.802Z,12.19
2022-10-19T06:49:32.761Z,12.19
2022-10-19T06:50:32.758Z,12.23
2022-10-19T06:51:32.759Z,12.29
2022-10-19T06:52:33.212Z,12.34
2022-10-19T06:53:32.731Z,12.39
2022-10-19T06:54:32.715Z,12.42
2022-10-19T06:55:32.670Z,12.46
2022-10-19T06:56:32.690Z,12.46
2022-10-19T06:57:32.846Z,12.42
2022-10-19T06:58:32.671Z,12.45
2022-10-19T06:59:32.621Z,12.47
2022-10-19T07:00:32.645Z,12.42
2022-10-19T07:01:32.646Z,12.45
2022-10-19T07:02:33.329Z,12.45
2022-10-19T07:03:32.585Z,12.47
2022-10-19T07:04:32.594Z,12.52
2022-10-19T07:05:32.561Z,12.54
2022-10-19T07:06:32.552Z,12.56
2022-10-19T07:07:32.926Z,12.59
2022-10-19T07:08:32.525Z,12.62
2022-10-19T07:09:32.558Z,12.64
2022-10-19T07:10:32.515Z,12.68
2022-10-19T07:11:32.507Z,12.67
2022-10-19T07:12:32.485Z,12.71
2022-10-19T07:13:32.495Z,12.74
2022-10-19T07:14:32.521Z,12.75
2022-10-19T07:15:32.447Z,12.82
2022-10-19T07:16:32.450Z,12.86
2022-10-19T07:17:32.941Z,12.92
2022-10-19T07:18:32.464Z,13.00
2022-10-19T07:19:32.432Z,13.04
2022-10-19T07:20:32.387Z,13.07
2022-10-19T07:21:32.391Z,13.11
2022-10-19T07:22:32.373Z,13.17
2022-10-19T07:23:32.403Z,13.23
2022-10-19T07:24:32.361Z,13.28
2022-10-19T07:25:32.372Z,13.32
2022-10-19T07:26:32.360Z,13.36
2022-10-19T07:27:37.378Z,13.38
2022-10-19T07:28:33.352Z,13.44
2022-10-19T07:29:32.285Z,13.45
2022-10-19T07:30:32.303Z,13.49
2022-10-19T07:31:32.265Z,13.51
2022-10-19T07:32:32.250Z,13.52
2022-10-19T07:33:32.244Z,13.51
2022-10-19T07:34:32.275Z,13.49
2022-10-19T07:35:32.241Z,13.49
2022-10-19T07:36:32.225Z,13.51
2022-10-19T07:37:32.598Z,13.49
2022-10-19T07:38:32.202Z,13.49
2022-10-19T07:39:32.208Z,13.48
2022-10-19T07:40:32.183Z,13.49
2022-10-19T07:41:32.133Z,13.51
2022-10-19T07:42:32.124Z,13.55
2022-10-19T07:43:32.158Z,13.59
2022-10-19T07:44:32.166Z,13.67
2022-10-19T07:45:32.095Z,13.70
2022-10-19T07:46:32.118Z,13.75
2022-10-19T07:47:32.422Z,13.75
2022-10-19T07:48:32.091Z,13.78
2022-10-19T07:49:32.051Z,13.85
2022-10-19T07:50:32.095Z,13.88
2022-10-19T07:51:32.067Z,13.95
2022-10-19T07:52:34.448Z,13.97
2022-10-19T07:53:32.040Z,13.99
2022-10-19T07:54:31.996Z,14.06
2022-10-19T07:55:31.977Z,14.07
2022-10-19T07:56:31.997Z,14.14
2022-10-19T07:57:31.983Z,14.21
2022-10-19T07:58:31.981Z,14.25
2022-10-19T07:59:31.943Z,14.27
2022-10-19T08:00:31.976Z,14.27
2022-10-19T08:01:31.929Z,14.22
2022-10-19T08:02:39.662Z,14.17
2022-10-19T08:05:32.903Z,14.18
2022-10-19T08:06:31.883Z,14.21
2022-10-19T08:07:31.904Z,14.22
2022-10-19T08:08:31.881Z,14.27
2022-10-19T08:09:52.180Z,14.35
2022-10-19T08:10:32.801Z,14.40
2022-10-19T08:11:31.825Z,14.51
2022-10-19T08:12:32.144Z,14.58
2022-10-19T08:13:31.764Z,14.69
2022-10-19T08:14:31.753Z,14.72
2022-10-19T08:15:31.743Z,14.73
2022-10-19T08:16:31.774Z,14.73
2022-10-19T08:17:31.748Z,14.81
2022-10-19T08:19:36.674Z,14.86
2022-10-19T08:20:31.686Z,14.94
2022-10-19T08:21:31.687Z,15.01
2022-10-19T08:22:31.712Z,15.06
2022-10-19T08:23:31.729Z,15.06
2022-10-19T08:24:31.680Z,15.01
2022-10-19T08:25:31.626Z,14.98
2022-10-19T08:26:31.628Z,14.95
2022-10-19T08:27:31.664Z,15.02
2022-10-19T08:28:31.616Z,15.01
2022-10-19T08:29:31.961Z,15.02
2022-10-19T08:30:31.610Z,15.03
2022-10-19T08:31:31.558Z,15.10
2022-10-19T08:32:31.846Z,15.10
2022-10-19T08:33:31.564Z,15.16
2022-10-19T08:34:31.595Z,15.19
2022-10-19T08:35:31.544Z,15.25
2022-10-19T08:36:31.557Z,15.34
2022-10-19T08:37:45.753Z,15.39
2022-10-19T08:38:32.492Z,15.59
2022-10-19T08:39:31.538Z,15.71
2022-10-19T08:40:31.468Z,15.84
2022-10-19T08:41:31.457Z,15.94
2022-10-19T08:42:31.780Z,15.92
2022-10-19T08:43:31.434Z,15.89
2022-10-19T08:44:31.435Z,15.90
2022-10-19T08:45:31.468Z,15.71
2022-10-19T08:46:31.407Z,15.67
2022-10-19T08:47:31.513Z,15.65
2022-10-19T08:48:31.407Z,15.65
2022-10-19T08:49:31.378Z,15.62
2022-10-19T08:50:31.355Z,15.68
2022-10-19T08:51:31.331Z,15.75
2022-10-19T08:52:34.426Z,15.87
2022-10-19T08:53:31.374Z,16.01
2022-10-19T08:54:31.308Z,16.20
2022-10-19T08:55:31.348Z,16.33
2022-10-19T08:56:51.122Z,16.42
2022-10-19T08:57:32.690Z,16.52
2022-10-19T08:58:31.245Z,16.50
2022-10-19T08:59:31.255Z,16.50
2022-10-19T09:00:31.304Z,16.38
2022-10-19T09:01:33.856Z,16.30
2022-10-19T09:02:32.440Z,16.08
2022-10-19T09:03:37.768Z,15.83
2022-10-19T09:04:32.217Z,15.71
2022-10-19T09:05:31.235Z,15.62
2022-10-19T09:06:31.163Z,15.65
2022-10-19T09:07:31.163Z,15.68
2022-10-19T09:08:31.177Z,15.59
2022-10-19T09:09:31.133Z,15.51
2022-10-19T09:10:31.174Z,15.47
2022-10-19T09:11:31.113Z,15.32
2022-10-19T09:12:31.106Z,15.21
2022-10-19T09:13:41.396Z,15.20
2022-10-19T09:14:32.108Z,15.10
2022-10-19T09:15:31.126Z,14.91
2022-10-19T09:16:31.055Z,14.84
2022-10-19T09:17:31.036Z,14.81
2022-10-19T09:18:31.036Z,14.81
2022-10-19T09:19:31.042Z,14.83
2022-10-19T09:20:31.056Z,14.70
2022-10-19T09:21:36.883Z,14.60
2022-10-19T09:22:32.243Z,14.55
2022-10-19T09:23:30.968Z,14.45
2022-10-19T09:24:30.958Z,14.32
2022-10-19T09:25:30.954Z,14.27
2022-10-19T09:26:30.975Z,14.24
2022-10-19T09:27:30.939Z,14.27
2022-10-19T09:28:36.521Z,14.35
2022-10-19T09:29:31.931Z,14.45
2022-10-19T09:30:30.891Z,14.58
2022-10-19T09:31:31.882Z,14.65
2022-10-19T09:32:30.909Z,14.65
2022-10-19T09:33:30.858Z,14.65
2022-10-19T09:34:30.872Z,14.58
2022-10-19T09:35:30.824Z,14.28
2022-10-19T09:36:49.386Z,14.18
2022-10-19T09:37:31.831Z,14.10
2022-10-19T09:38:30.873Z,14.06
2022-10-19T09:39:30.812Z,14.09
2022-10-19T09:40:30.789Z,14.20
2022-10-19T09:41:30.750Z,14.28
2022-10-19T09:42:30.761Z,14.15
2022-10-19T09:43:30.784Z,14.02
2022-10-19T09:44:30.741Z,13.89
2022-10-19T09:45:30.731Z,13.92
2022-10-19T09:46:30.764Z,13.99
2022-10-19T09:47:30.747Z,14.06
2022-10-19T09:48:30.670Z,14.12
2022-10-19T09:49:30.706Z,14.21
2022-10-19T09:50:30.652Z,14.25
2022-10-19T09:51:30.703Z,14.35
2022-10-19T09:52:30.657Z,14.47
2022-10-19T09:53:30.705Z,14.64
2022-10-19T09:54:30.625Z,14.80
2022-10-19T09:55:30.607Z,15.03
2022-10-19T09:56:30.588Z,15.31
2022-10-19T09:57:30.743Z,15.57
2022-10-19T09:58:33.001Z,15.72
2022-10-19T09:59:30.585Z,15.71
2022-10-19T10:00:30.551Z,15.76
2022-10-19T10:01:39.962Z,15.84
2022-10-19T10:02:31.730Z,17.21
2022-10-19T10:03:30.568Z,17.18
2022-10-19T10:04:30.565Z,16.78
2022-10-19T10:05:30.489Z,16.23
2022-10-19T10:06:30.472Z,15.69
2022-10-19T10:07:30.484Z,15.50
2022-10-19T10:08:30.495Z,15.27
2022-10-19T10:09:30.489Z,15.11
2022-10-19T10:10:30.687Z,15.02
2022-10-19T10:11:30.400Z,14.99
2022-10-19T10:12:30.399Z,14.81
2022-10-19T10:13:30.394Z,14.81
2022-10-19T10:14:30.364Z,14.73
2022-10-19T10:15:30.517Z,14.73
2022-10-19T10:16:30.343Z,14.72
2022-10-19T10:17:30.330Z,14.77
2022-10-19T10:18:30.356Z,14.81
2022-10-19T10:19:30.312Z,14.89
2022-10-19T10:20:30.372Z,14.83
2022-10-19T10:21:30.355Z,14.78
2022-10-19T10:22:30.275Z,14.69
2022-10-19T10:23:30.275Z,14.72
2022-10-19T10:24:30.267Z,14.77
2022-10-19T10:25:30.269Z,14.81
2022-10-19T10:26:30.307Z,14.83
2022-10-19T10:27:30.271Z,14.81
2022-10-19T10:28:30.228Z,14.80
2022-10-19T10:29:30.194Z,14.81
2022-10-19T10:30:30.209Z,14.80
2022-10-19T10:31:30.197Z,14.86
2022-10-19T10:32:30.186Z,14.92
2022-10-19T10:33:45.954Z,14.92
2022-10-19T10:34:45.566Z,14.89
2022-10-19T10:35:31.139Z,14.88
2022-10-19T10:36:30.170Z,14.91
2022-10-19T10:37:30.121Z,14.94
2022-10-19T10:38:30.161Z,14.86
2022-10-19T10:39:30.131Z,14.77
2022-10-19T10:40:30.082Z,14.69
2022-10-19T10:41:30.049Z,14.61
2022-10-19T10:42:30.073Z,14.68
2022-10-19T10:43:30.046Z,14.61
2022-10-19T10:44:30.091Z,14.60
2022-10-19T10:45:30.044Z,14.60
2022-10-19T10:46:30.021Z,14.68
2022-10-19T10:47:30.002Z,14.68
2022-10-19T10:48:29.995Z,14.73
2022-10-19T10:49:29.993Z,14.69
2022-10-19T10:50:29.953Z,14.70
2022-10-19T10:51:29.956Z,14.75
2022-10-19T10:52:30.027Z,14.78
2022-10-19T10:53:29.960Z,14.84
2022-10-19T10:54:29.977Z,14.89
2022-10-19T10:55:29.917Z,14.88
2022-10-19T10:56:29.902Z,14.78
2022-10-19T10:57:29.920Z,14.69
2022-10-19T10:58:30.437Z,14.65
2022-10-19T10:59:29.885Z,14.69
2022-10-19T11:00:29.835Z,14.77
2022-10-19T11:01:30.009Z,14.80
2022-10-19T11:02:29.830Z,14.84
2022-10-19T11:03:29.866Z,14.84
2022-10-19T11:04:29.829Z,14.92
2022-10-19T11:05:29.785Z,14.98
2022-10-19T11:06:29.808Z,15.09
2022-10-19T11:07:29.759Z,15.16
2022-10-19T11:08:29.767Z,15.17
2022-10-19T11:09:29.772Z,15.20
2022-10-19T11:10:29.719Z,15.16
2022-10-19T11:11:29.722Z,15.10
2022-10-19T11:12:34.285Z,15.10
2022-10-19T11:13:30.713Z,15.14
2022-10-19T11:14:29.815Z,15.17
2022-10-19T11:16:29.654Z,15.23
2022-10-19T11:17:29.660Z,15.32
2022-10-19T11:18:29.667Z,15.41
2022-10-19T11:19:29.636Z,15.49
2022-10-19T11:20:29.678Z,15.59
2022-10-19T11:21:29.611Z,15.64
2022-10-19T11:22:29.582Z,15.67
2022-10-19T11:23:29.588Z,15.69
2022-10-19T11:25:29.563Z,15.36
2022-10-19T11:26:29.563Z,15.10
2022-10-19T11:27:29.546Z,15.13
2022-10-19T11:28:29.528Z,15.02
2022-10-19T11:29:29.506Z,14.94
2022-10-19T11:30:29.530Z,14.92
2022-10-19T11:31:29.779Z,14.92
2022-10-19T11:32:29.495Z,14.84
2022-10-19T11:33:29.466Z,14.69
2022-10-19T11:34:29.449Z,14.62
2022-10-19T11:35:29.449Z,14.70
2022-10-19T11:36:29.451Z,14.69
2022-10-19T11:37:29.435Z,14.69
2022-10-19T11:38:30.373Z,14.52
2022-10-19T11:39:29.411Z,14.57
2022-10-19T11:40:29.378Z,14.65
2022-10-19T11:41:29.385Z,14.77
2022-10-19T11:42:29.411Z,14.91
2022-10-19T11:43:29.360Z,14.99
2022-10-19T11:44:29.329Z,15.07
2022-10-19T11:45:29.320Z,15.11
2022-10-19T11:46:29.410Z,15.13
2022-10-19T11:47:29.300Z,14.95
2022-10-19T11:48:29.301Z,14.96
2022-10-19T11:49:29.270Z,15.19
2022-10-19T11:50:31.203Z,15.38
2022-10-19T11:51:29.255Z,15.56
2022-10-19T11:52:29.300Z,15.59
2022-10-19T11:53:29.258Z,15.74
2022-10-19T11:54:29.222Z,16.11
2022-10-19T11:55:29.217Z,17.30
2022-10-19T11:56:39.098Z,18.63
2022-10-19T11:57:30.225Z,18.85
2022-10-19T11:58:34.445Z,18.08
2022-10-19T11:59:30.168Z,17.28
2022-10-19T12:00:38.560Z,16.78
2022-10-19T12:01:30.147Z,16.42
2022-10-19T12:02:29.215Z,16.17
2022-10-19T12:03:29.148Z,16.23
2022-10-19T12:04:29.096Z,16.24
2022-10-19T12:05:29.110Z,16.24
2022-10-19T12:06:29.091Z,16.24
2022-10-19T12:07:29.060Z,16.24
2022-10-19T12:08:29.200Z,16.24
2022-10-19T12:09:29.078Z,16.21
2022-10-19T12:10:29.031Z,16.25
2022-10-19T12:11:29.017Z,16.23
2022-10-19T12:12:29.009Z,16.12
2022-10-19T12:13:29.013Z,16.08
2022-10-19T12:14:29.035Z,16.05
2022-10-19T12:15:28.999Z,15.97
2022-10-19T12:16:28.991Z,15.89
2022-10-19T12:17:28.981Z,15.86
2022-10-19T12:18:28.955Z,15.84
2022-10-19T12:19:28.931Z,15.84
2022-10-19T12:20:28.935Z,15.75
2022-10-19T12:21:28.935Z,15.65
2022-10-19T12:22:28.938Z,15.60
2022-10-19T12:23:28.907Z,15.57
2022-10-19T12:24:28.977Z,15.60
2022-10-19T12:25:28.867Z,15.56
2022-10-19T12:26:28.864Z,15.43
2022-10-19T12:27:28.857Z,15.38
2022-10-19T12:28:28.875Z,15.31
2022-10-19T12:29:28.861Z,15.27
2022-10-19T12:30:28.840Z,15.29
2022-10-19T12:31:28.784Z,15.25
2022-10-19T12:32:28.775Z,15.14
2022-10-19T12:33:28.798Z,15.14
2022-10-19T12:34:28.791Z,15.02
2022-10-19T12:35:28.779Z,14.91
2022-10-19T12:36:28.768Z,14.91
2022-10-19T12:37:28.718Z,14.91
2022-10-19T12:38:28.730Z,14.95
2022-10-19T12:39:28.762Z,14.96
2022-10-19T12:40:28.678Z,14.95
2022-10-19T12:41:28.689Z,14.95
2022-10-19T12:42:28.697Z,14.92
2022-10-19T12:43:28.679Z,14.89
2022-10-19T12:44:28.683Z,14.81
2022-10-19T12:45:28.667Z,14.57
2022-10-19T12:46:28.655Z,14.35
2022-10-19T12:47:28.703Z,14.22
2022-10-19T12:48:28.618Z,14.14
2022-10-19T12:49:28.603Z,14.12
2022-10-19T12:50:28.584Z,14.20
2022-10-19T12:51:28.595Z,14.28
2022-10-19T12:52:28.586Z,14.33
2022-10-19T12:53:28.533Z,14.39
2022-10-19T12:54:28.523Z,14.43
2022-10-19T12:55:28.532Z,14.47
2022-10-19T12:56:28.508Z,14.52
2022-10-19T12:57:28.559Z,14.58
2022-10-19T12:58:28.537Z,14.60
2022-10-19T12:59:28.463Z,14.61